createdAt,value
2018-02-17T00:01:15.987Z,87.70
2018-02-17T00:03:43.503Z,87.60
2018-02-17T00:06:11.051Z,88.30
2018-02-17T00:08:38.562Z,87.60
2018-02-17T00:11:07.795Z,88.10
2018-02-17T00:13:35.330Z,88.00
2018-02-17T00:16:02.896Z,88.20
2018-02-17T00:18:30.447Z,88.20
2018-02-17T00:20:58.920Z,87.20
2018-02-17T00:23:26.484Z,86.70
2018-02-17T00:25:54.042Z,86.60
2018-02-17T00:28:21.591Z,86.20
2018-02-17T00:30:49.880Z,86.30
2018-02-17T00:33:17.406Z,86.20
2018-02-17T00:35:44.966Z,87.10
2018-02-17T00:38:12.490Z,86.70
2018-02-17T00:40:40.056Z,86.70
2018-02-17T00:43:07.708Z,87.00
2018-02-17T00:45:38.072Z,88.10
2018-02-17T00:48:05.599Z,88.10
2018-02-17T00:50:33.126Z,87.20
2018-02-17T00:53:01.439Z,85.20
2018-02-17T00:55:28.980Z,85.20
2018-02-17T00:57:56.558Z,86.50
2018-02-17T01:00:24.090Z,87.00
2018-02-17T01:02:52.502Z,86.40
2018-02-17T01:05:20.027Z,86.40
2018-02-17T01:07:47.547Z,86.00
2018-02-17T01:10:15.099Z,85.90
2018-02-17T01:12:42.621Z,85.80
2018-02-17T01:15:10.172Z,86.30
2018-02-17T01:17:38.458Z,85.80
2018-02-17T01:20:06.010Z,85.80
2018-02-17T01:22:34.326Z,87.70
2018-02-17T01:25:01.858Z,87.70
2018-02-17T01:27:29.415Z,87.80
2018-02-17T01:29:56.943Z,86.70
2018-02-17T01:32:24.493Z,86.50
2018-02-17T01:34:52.023Z,86.40
2018-02-17T01:37:19.569Z,85.50
2018-02-17T01:39:48.152Z,85.10
2018-02-17T01:42:15.674Z,86.00
2018-02-17T01:44:43.227Z,85.60
2018-02-17T01:47:10.757Z,86.00
2018-02-17T01:49:38.273Z,85.70
2018-02-17T01:52:05.851Z,85.40
2018-02-17T01:54:33.381Z,85.30
2018-02-17T01:57:00.941Z,85.50
2018-02-17T01:59:28.470Z,85.30
2018-02-17T02:01:57.986Z,85.20
2018-02-17T02:04:25.498Z,84.60
2018-02-17T02:06:53.047Z,84.50
2018-02-17T02:09:20.582Z,84.40
2018-02-17T02:11:48.107Z,84.00
2018-02-17T02:14:15.656Z,85.50
2018-02-17T02:16:43.192Z,84.80
2018-02-17T02:19:10.743Z,84.30
2018-02-17T02:21:38.262Z,84.60
2018-02-17T02:24:06.574Z,84.50
2018-02-17T02:26:34.103Z,84.50
2018-02-17T02:29:02.395Z,84.20
2018-02-17T02:31:29.950Z,84.20
2018-02-17T02:33:57.482Z,84.40
2018-02-17T02:36:26.756Z,84.50
2018-02-17T02:38:54.377Z,84.50
2018-02-17T02:41:21.936Z,84.40
2018-02-17T02:43:49.460Z,84.90
2018-02-17T02:46:16.988Z,84.90
2018-02-17T02:48:44.544Z,84.30
2018-02-17T02:51:12.076Z,84.00
2018-02-17T02:53:39.632Z,84.30
2018-02-17T02:56:07.171Z,83.90
2018-02-17T02:58:34.769Z,83.50
2018-02-17T03:01:02.295Z,83.40
2018-02-17T03:03:29.822Z,83.40
2018-02-17T03:05:59.079Z,82.80
2018-02-17T03:08:26.604Z,82.80
2018-02-17T03:10:54.918Z,83.00
2018-02-17T03:13:22.435Z,83.00
2018-02-17T03:15:49.987Z,83.40
2018-02-17T03:18:17.519Z,83.70
2018-02-17T03:20:45.041Z,83.60
2018-02-17T03:23:12.609Z,83.50
2018-02-17T03:25:40.135Z,83.70
2018-02-17T03:28:08.475Z,84.80
2018-02-17T03:30:36.006Z,84.80
2018-02-17T03:33:03.555Z,85.40
2018-02-17T03:35:31.083Z,85.40
2018-02-17T03:37:58.609Z,84.80
2018-02-17T03:40:27.110Z,82.30
2018-02-17T03:42:54.630Z,81.80
2018-02-17T03:45:23.115Z,81.30
2018-02-17T03:47:50.630Z,81.70
2018-02-17T03:50:18.175Z,80.30
2018-02-17T03:52:46.476Z,82.70
2018-02-17T03:55:14.007Z,82.70
2018-02-17T03:57:42.327Z,83.80
2018-02-17T04:00:09.851Z,83.70
2018-02-17T04:02:38.166Z,84.60
2018-02-17T04:05:06.375Z,84.70
2018-02-17T04:07:33.934Z,84.70
2018-02-17T04:10:01.455Z,80.50
2018-02-17T04:12:29.939Z,80.00
2018-02-17T04:14:57.492Z,79.70
2018-02-17T04:17:25.018Z,79.40
2018-02-17T04:19:53.333Z,79.60
2018-02-17T04:22:20.855Z,79.60
2018-02-17T04:24:48.409Z,79.10
2018-02-17T04:27:16.688Z,80.20
2018-02-17T04:29:44.209Z,80.20
2018-02-17T04:32:11.772Z,79.20
2018-02-17T04:34:39.317Z,79.50
2018-02-17T04:37:06.933Z,79.80
2018-02-17T04:39:34.505Z,80.10
2018-02-17T04:42:14.766Z,79.60
2018-02-17T04:44:43.202Z,82.00
2018-02-17T04:50:07.691Z,83.60
2018-02-17T04:52:40.793Z,85.20
2018-02-17T04:58:21.341Z,91.00
2018-02-17T05:01:03.747Z,91.00
2018-02-17T05:03:37.932Z,92.50
2018-02-17T05:06:12.017Z,92.90
2018-02-17T05:08:44.043Z,91.90
2018-02-17T05:11:11.596Z,91.90
2018-02-17T05:13:39.163Z,93.40
2018-02-17T05:16:09.406Z,93.20
2018-02-17T05:18:43.612Z,92.50
2018-02-17T05:21:16.818Z,92.60
2018-02-17T05:23:44.375Z,91.80
2018-02-17T05:26:12.777Z,91.40
2018-02-17T05:28:40.931Z,91.80
2018-02-17T05:31:09.249Z,92.40
2018-02-17T05:36:38.623Z,92.20
2018-02-17T05:39:07.090Z,91.90
2018-02-17T05:44:35.699Z,92.40
2018-02-17T05:47:18.142Z,92.10
2018-02-17T05:49:57.502Z,91.40
2018-02-17T05:52:25.047Z,90.60
2018-02-17T05:54:52.570Z,89.30
2018-02-17T05:57:20.880Z,90.10
2018-02-17T05:59:48.399Z,90.10
2018-02-17T06:02:16.713Z,89.10
2018-02-17T06:04:44.230Z,89.10
2018-02-17T06:07:11.764Z,87.10
2018-02-17T06:09:39.319Z,86.70
2018-02-17T06:12:06.859Z,87.80
2018-02-17T06:14:34.404Z,86.40
2018-02-17T06:17:01.948Z,86.20
2018-02-17T06:19:29.499Z,88.70
2018-02-17T06:21:57.785Z,90.80
2018-02-17T06:24:25.307Z,90.80
2018-02-17T06:26:53.827Z,91.90
2018-02-17T06:29:21.354Z,93.10
2018-02-17T06:31:48.928Z,92.80
2018-02-17T06:34:17.219Z,94.70
2018-02-17T06:36:44.766Z,94.70
2018-02-17T06:39:13.057Z,95.40
2018-02-17T06:41:40.606Z,95.30
2018-02-17T06:44:08.158Z,94.50
2018-02-17T06:46:36.448Z,95.20
2018-02-17T06:49:03.999Z,95.20
2018-02-17T06:51:31.530Z,95.50
2018-02-17T06:53:59.091Z,95.80
2018-02-17T06:56:26.618Z,95.80
2018-02-17T06:58:54.151Z,93.90
2018-02-17T07:01:22.684Z,92.30
2018-02-17T07:03:50.203Z,91.70
2018-02-17T07:06:18.724Z,91.90
2018-02-17T07:08:48.003Z,91.80
2018-02-17T07:11:15.547Z,91.80
2018-02-17T07:13:43.068Z,92.30
2018-02-17T07:16:10.603Z,91.70
2018-02-17T07:18:38.919Z,90.80
2018-02-17T07:21:07.383Z,90.80
2018-02-17T07:23:34.948Z,90.20
2018-02-17T07:26:02.488Z,89.80
2018-02-17T07:28:30.807Z,89.80
2018-02-17T07:30:58.331Z,89.80
2018-02-17T07:33:26.664Z,92.30
2018-02-17T07:35:54.206Z,92.30
2018-02-17T07:38:21.728Z,91.20
2018-02-17T07:40:50.059Z,93.60
2018-02-17T07:43:17.587Z,93.60
2018-02-17T07:45:45.146Z,93.80
2018-02-17T07:48:12.678Z,94.00
2018-02-17T07:50:40.974Z,94.50
2018-02-17T07:53:08.527Z,94.50
2018-02-17T07:55:36.068Z,94.50
2018-02-17T07:58:04.392Z,94.90
2018-02-17T08:00:31.925Z,94.90
2018-02-17T08:02:59.502Z,94.50
2018-02-17T08:05:27.031Z,94.90
2018-02-17T08:07:54.552Z,93.50
2018-02-17T08:10:22.879Z,93.90
2018-02-17T08:12:50.413Z,93.90
2018-02-17T08:15:18.734Z,93.40
2018-02-17T08:17:46.262Z,93.40
2018-02-17T08:20:14.746Z,93.70
2018-02-17T08:22:42.295Z,93.60
2018-02-17T08:25:09.820Z,94.00
2018-02-17T08:27:37.379Z,94.50
2018-02-17T08:30:04.944Z,93.80
2018-02-17T08:32:32.499Z,95.30
2018-02-17T08:35:00.032Z,94.10
2018-02-17T08:37:27.616Z,94.60
2018-02-17T08:39:55.146Z,94.20
2018-02-17T08:42:23.640Z,94.30
2018-02-17T08:44:51.199Z,94.70
2018-02-17T08:47:18.727Z,94.50
2018-02-17T08:49:46.270Z,94.80
2018-02-17T08:52:14.763Z,94.60
2018-02-17T08:54:42.311Z,94.20
2018-02-17T08:57:10.780Z,94.60
2018-02-17T08:59:39.072Z,93.90
2018-02-17T09:02:07.566Z,93.90
2018-02-17T09:04:35.089Z,94.10
2018-02-17T09:07:02.638Z,94.20
2018-02-17T09:09:31.130Z,93.80
2018-02-17T09:11:58.691Z,93.10
2018-02-17T09:14:26.997Z,93.20
2018-02-17T09:16:54.542Z,93.10
2018-02-17T09:19:22.098Z,93.70
2018-02-17T09:21:49.638Z,93.50
2018-02-17T09:24:17.955Z,95.10
2018-02-17T09:26:46.582Z,95.10
2018-02-17T09:29:14.135Z,94.00
2018-02-17T09:31:41.671Z,94.70
2018-02-17T09:34:09.211Z,94.80
2018-02-17T09:36:36.771Z,94.90
2018-02-17T09:39:04.302Z,95.40
2018-02-17T09:41:31.878Z,93.90
2018-02-17T09:43:59.410Z,95.50
2018-02-17T09:46:26.976Z,95.40
2018-02-17T09:48:54.523Z,95.00
2018-02-17T09:51:22.828Z,95.10
2018-02-17T09:53:51.335Z,94.70
2018-02-17T09:56:19.820Z,94.70
2018-02-17T09:58:47.391Z,93.80
2018-02-17T10:01:14.922Z,93.80
2018-02-17T10:03:42.476Z,93.50
2018-02-17T10:06:10.012Z,94.60
2018-02-17T10:08:39.387Z,95.30
2018-02-17T10:11:06.951Z,95.30
2018-02-17T10:13:34.485Z,94.90
2018-02-17T10:16:04.036Z,95.20
2018-02-17T10:18:32.328Z,95.20
2018-02-17T10:21:00.856Z,95.10
2018-02-17T10:23:28.402Z,95.50
2018-02-17T10:25:55.969Z,95.60
2018-02-17T10:28:23.558Z,94.90
2018-02-17T10:30:51.089Z,95.10
2018-02-17T10:33:18.639Z,95.90
2018-02-17T10:35:47.171Z,95.80
2018-02-17T10:38:14.723Z,95.90
2018-02-17T10:40:43.024Z,96.30
2018-02-17T10:43:10.555Z,96.30
2018-02-17T10:45:38.869Z,96.50
2018-02-17T10:48:06.399Z,96.20
2018-02-17T10:50:34.738Z,95.30
2018-02-17T10:53:02.268Z,95.30
2018-02-17T10:55:35.423Z,94.20
2018-02-17T10:58:03.208Z,93.80
2018-02-17T11:00:30.737Z,94.70
2018-02-17T11:02:58.286Z,94.50
2018-02-17T11:05:25.851Z,94.50
2018-02-17T11:07:53.402Z,94.20
2018-02-17T11:10:20.927Z,93.50
2018-02-17T11:12:48.457Z,94.20
2018-02-17T11:15:16.012Z,93.50
2018-02-17T11:17:43.538Z,93.50
2018-02-17T11:20:11.100Z,92.20
2018-02-17T11:22:38.621Z,93.20
2018-02-17T11:25:07.481Z,92.10
2018-02-17T11:27:35.045Z,92.10
2018-02-17T11:30:02.577Z,92.60
2018-02-17T11:32:30.906Z,92.30
2018-02-17T11:34:58.449Z,92.30
2018-02-17T11:37:26.006Z,91.50
2018-02-17T11:39:53.552Z,92.80
2018-02-17T11:42:21.079Z,92.80
2018-02-17T11:44:48.650Z,93.00
2018-02-17T11:47:17.897Z,92.20
2018-02-17T11:49:46.388Z,92.20
2018-02-17T11:52:13.947Z,92.90
2018-02-17T11:54:42.436Z,93.20
2018-02-17T11:57:09.995Z,94.40
2018-02-17T11:59:38.512Z,95.20
2018-02-17T12:02:06.077Z,93.70
2018-02-17T12:04:33.628Z,93.50
2018-02-17T12:07:01.159Z,93.70
2018-02-17T12:09:28.718Z,94.80
2018-02-17T12:11:56.296Z,94.10
2018-02-17T12:14:23.820Z,94.30
2018-02-17T12:16:53.288Z,94.10
2018-02-17T12:19:20.827Z,94.60
2018-02-17T12:21:48.381Z,94.50
2018-02-17T12:24:15.920Z,94.30
2018-02-17T12:26:43.450Z,94.50
2018-02-17T12:29:11.009Z,94.00
2018-02-17T12:31:38.565Z,95.10
2018-02-17T12:34:06.117Z,93.80
2018-02-17T12:36:33.647Z,93.30
2018-02-17T12:39:02.927Z,94.00
2018-02-17T12:41:30.452Z,94.00
2018-02-17T12:43:57.975Z,94.70
2018-02-17T12:46:25.572Z,94.40
2018-02-17T12:48:53.095Z,93.80
2018-02-17T12:51:22.596Z,93.00
2018-02-17T12:53:50.124Z,93.80
2018-02-17T12:56:17.681Z,94.20
2018-02-17T12:58:45.275Z,93.10
2018-02-17T13:01:12.807Z,92.90
2018-02-17T13:03:41.385Z,94.10
2018-02-17T13:06:08.926Z,93.70
2018-02-17T13:08:36.487Z,93.40
2018-02-17T13:11:04.011Z,92.50
2018-02-17T13:13:31.587Z,92.90
2018-02-17T13:16:00.115Z,93.60
2018-02-17T13:18:27.652Z,93.00
2018-02-17T13:20:55.208Z,92.60
2018-02-17T13:23:22.763Z,92.10
2018-02-17T13:25:50.307Z,92.40
2018-02-17T13:28:25.705Z,91.90
2018-02-17T13:30:53.295Z,92.10
2018-02-17T13:33:20.822Z,92.40
2018-02-17T13:35:48.361Z,92.50
2018-02-17T13:38:16.698Z,92.50
2018-02-17T13:40:45.225Z,92.20
2018-02-17T13:43:13.557Z,92.40
2018-02-17T13:45:41.089Z,92.40
2018-02-17T13:48:08.617Z,92.40
2018-02-17T13:50:36.953Z,92.80
2018-02-17T13:53:04.527Z,92.80
2018-02-17T13:55:32.859Z,92.10
2018-02-17T13:58:00.387Z,92.30
2018-02-17T14:00:28.692Z,93.30
2018-02-17T14:02:56.250Z,93.30
2018-02-17T14:05:23.800Z,91.80
2018-02-17T14:07:51.377Z,91.40
2018-02-17T14:10:19.160Z,92.70
2018-02-17T14:12:46.691Z,92.30
2018-02-17T14:15:15.211Z,91.70
2018-02-17T14:17:42.744Z,90.90
2018-02-17T14:20:10.300Z,91.40
2018-02-17T14:22:38.789Z,91.60
2018-02-17T14:25:06.680Z,92.10
2018-02-17T14:27:34.240Z,92.10
2018-02-17T14:30:01.787Z,92.90
2018-02-17T14:32:29.344Z,92.10
2018-02-17T14:34:56.869Z,91.90
2018-02-17T14:37:24.435Z,92.20
2018-02-17T14:39:51.957Z,92.40
2018-02-17T14:42:19.518Z,92.70
2018-02-17T14:44:47.071Z,92.00
2018-02-17T14:47:14.599Z,92.00
2018-02-17T14:49:43.122Z,92.00
2018-02-17T14:52:11.460Z,92.20
2018-02-17T14:54:39.032Z,92.20
2018-02-17T14:57:06.579Z,92.30
2018-02-17T14:59:35.072Z,93.00
2018-02-17T15:02:02.643Z,92.00
2018-02-17T15:04:30.207Z,93.00
2018-02-17T15:06:57.759Z,91.70
2018-02-17T15:09:25.284Z,91.20
2018-02-17T15:11:52.883Z,92.10
2018-02-17T15:14:21.204Z,90.50
2018-02-17T15:16:48.743Z,90.40
2018-02-17T15:19:16.305Z,89.40
2018-02-17T15:21:43.879Z,89.50
2018-02-17T15:24:11.435Z,90.20
2018-02-17T15:26:38.968Z,90.80
2018-02-17T15:29:06.514Z,90.90
2018-02-17T15:31:34.043Z,91.20
2018-02-17T15:34:01.588Z,90.40
2018-02-17T15:36:29.139Z,90.60
2018-02-17T15:38:57.644Z,90.20
2018-02-17T15:41:27.128Z,91.10
2018-02-17T15:43:54.680Z,91.00
2018-02-17T15:46:23.296Z,90.50
2018-02-17T15:48:50.827Z,90.30
2018-02-17T15:51:18.359Z,90.60
2018-02-17T15:53:46.687Z,92.30
2018-02-17T15:56:14.223Z,92.30
2018-02-17T15:58:41.791Z,91.30
2018-02-17T16:01:09.333Z,91.00
2018-02-17T16:03:36.899Z,91.20
2018-02-17T16:06:04.464Z,91.20
2018-02-17T16:08:32.041Z,92.00
2018-02-17T16:11:00.555Z,92.30
2018-02-17T16:13:28.111Z,91.50
2018-02-17T16:15:55.683Z,90.90
2018-02-17T16:18:23.213Z,90.70
2018-02-17T16:20:50.796Z,90.70
2018-02-17T16:23:18.360Z,92.10
2018-02-17T16:25:45.931Z,91.20
2018-02-17T16:28:13.458Z,91.80
2018-02-17T16:30:40.990Z,91.60
2018-02-17T16:33:08.535Z,90.70
2018-02-17T16:35:36.059Z,90.90
2018-02-17T16:38:03.619Z,90.10
2018-02-17T16:40:32.080Z,90.20
2018-02-17T16:42:59.634Z,90.20
2018-02-17T16:45:27.194Z,89.50
2018-02-17T16:47:54.721Z,88.50
2018-02-17T16:50:22.267Z,88.50
2018-02-17T16:52:49.802Z,88.50
2018-02-17T16:55:17.326Z,87.20
2018-02-17T16:57:44.875Z,89.60
2018-02-17T17:00:12.415Z,90.80
2018-02-17T17:02:39.987Z,91.00
2018-02-17T17:05:07.508Z,90.50
2018-02-17T17:07:35.834Z,90.10
2018-02-17T17:10:03.395Z,90.10
2018-02-17T17:12:30.945Z,90.50
2018-02-17T17:14:58.542Z,90.50
2018-02-17T17:17:26.084Z,89.60
2018-02-17T17:19:53.618Z,90.60
2018-02-17T17:22:21.193Z,91.10
2018-02-17T17:24:48.727Z,90.90
2018-02-17T17:27:16.295Z,90.30
2018-02-17T17:29:43.826Z,90.70
2018-02-17T17:32:11.374Z,90.60
2018-02-17T17:34:38.939Z,90.60
2018-02-17T17:37:07.240Z,91.30
2018-02-17T17:39:34.804Z,91.30
2018-02-17T17:42:02.339Z,91.00
2018-02-17T17:44:29.877Z,90.90
2018-02-17T17:46:57.423Z,91.10
2018-02-17T17:49:25.907Z,91.30
2018-02-17T17:51:54.143Z,90.90
2018-02-17T17:54:21.673Z,90.70
2018-02-17T17:56:49.198Z,91.10
2018-02-17T17:59:16.760Z,92.20
2018-02-17T18:01:44.301Z,91.10
2018-02-17T18:04:11.875Z,91.10
2018-02-17T18:06:41.115Z,90.90
2018-02-17T18:09:08.663Z,90.90
2018-02-17T18:11:36.242Z,91.30
2018-02-17T18:14:03.758Z,90.40
2018-02-17T18:16:31.322Z,89.80
2018-02-17T18:18:59.626Z,90.30
2018-02-17T18:21:27.167Z,90.30
2018-02-17T18:23:56.642Z,91.00
2018-02-17T18:26:24.179Z,91.00
2018-02-17T18:28:51.735Z,91.20
2018-02-17T18:31:19.266Z,91.50
2018-02-17T18:33:47.778Z,91.10
2018-02-17T18:36:15.636Z,90.90
2018-02-17T18:38:43.202Z,90.90
2018-02-17T18:41:10.776Z,90.90
2018-02-17T18:43:38.313Z,91.20
2018-02-17T18:46:05.850Z,90.90
2018-02-17T18:48:33.417Z,91.30
2018-02-17T18:51:00.971Z,91.80
2018-02-17T18:53:29.220Z,91.00
2018-02-17T18:55:57.546Z,91.50
2018-02-17T18:58:25.105Z,91.50
2018-02-17T19:00:52.697Z,91.60
2018-02-17T19:03:20.260Z,92.20
2018-02-17T19:05:47.874Z,92.00
2018-02-17T19:08:15.475Z,91.30
2018-02-17T19:10:43.043Z,91.40
2018-02-17T19:13:10.650Z,91.10
2018-02-17T19:15:38.191Z,90.60
2018-02-17T19:18:05.761Z,91.20
2018-02-17T19:20:33.293Z,91.30
2018-02-17T19:23:01.618Z,91.40
2018-02-17T19:25:29.158Z,91.40
2018-02-17T19:27:56.688Z,90.50
2018-02-17T19:30:25.196Z,90.00
2018-02-17T19:32:52.726Z,90.60
2018-02-17T19:35:21.075Z,90.60
2018-02-17T19:37:49.367Z,91.70
2018-02-17T19:40:17.700Z,91.10
2018-02-17T19:42:45.275Z,91.00
2018-02-17T19:45:12.803Z,89.60
2018-02-17T19:47:40.358Z,90.50
2018-02-17T19:50:07.891Z,90.70
2018-02-17T19:52:36.215Z,89.80
2018-02-17T19:55:03.758Z,89.70
2018-02-17T19:57:31.310Z,90.40
2018-02-17T19:59:58.871Z,90.60
2018-02-17T20:02:26.387Z,90.70
2018-02-17T20:04:54.704Z,90.80
2018-02-17T20:07:22.248Z,90.80
2018-02-17T20:09:49.788Z,91.50
2018-02-17T20:12:18.111Z,91.20
2018-02-17T20:14:45.644Z,91.20
2018-02-17T20:17:13.215Z,91.60
2018-02-17T20:19:40.774Z,91.70
2018-02-17T20:22:09.067Z,91.80
2018-02-17T20:24:36.643Z,91.30
2018-02-17T20:27:04.172Z,92.10
2018-02-17T20:29:31.768Z,90.70
2018-02-17T20:32:00.345Z,91.40
2018-02-17T20:34:27.883Z,91.50
2018-02-17T20:36:56.444Z,91.80
2018-02-17T20:39:23.978Z,91.30
2018-02-17T20:41:51.606Z,91.20
2018-02-17T20:44:19.152Z,91.10
2018-02-17T20:46:46.688Z,90.60
2018-02-17T20:49:14.287Z,91.30
2018-02-17T20:51:41.835Z,91.50
2018-02-17T20:54:11.032Z,91.40
2018-02-17T20:56:38.605Z,91.20
2018-02-17T20:59:06.183Z,90.90
2018-02-17T21:01:33.723Z,91.00
2018-02-17T21:04:01.268Z,91.20
2018-02-17T21:06:30.795Z,90.30
2018-02-17T21:08:59.104Z,91.00
2018-02-17T21:11:27.618Z,90.60
2018-02-17T21:13:55.178Z,90.70
2018-02-17T21:16:22.751Z,91.20
2018-02-17T21:18:50.333Z,91.10
2018-02-17T21:21:18.263Z,91.00
2018-02-17T21:23:45.848Z,91.00
2018-02-17T21:26:13.387Z,90.60
2018-02-17T21:28:40.953Z,91.20
2018-02-17T21:31:08.493Z,91.40
2018-02-17T21:33:36.264Z,91.40
2018-02-17T21:36:04.781Z,92.00
2018-02-17T21:38:32.315Z,91.00
2018-02-17T21:41:00.019Z,91.30
2018-02-17T21:43:28.507Z,91.50
2018-02-17T21:45:56.840Z,91.70
2018-02-17T21:48:24.376Z,91.60
2018-02-17T21:50:52.880Z,91.50
2018-02-17T21:53:20.441Z,91.60
2018-02-17T21:55:48.312Z,91.80
2018-02-17T21:58:15.958Z,91.30
2018-02-17T22:00:43.507Z,92.00
2018-02-17T22:03:11.106Z,91.60
2018-02-17T22:05:38.671Z,90.80
2018-02-17T22:08:06.993Z,91.10
2018-02-17T22:10:34.568Z,91.10
2018-02-17T22:13:03.070Z,91.50
2018-02-17T22:15:30.624Z,91.60
2018-02-17T22:17:58.165Z,91.90
2018-02-17T22:20:25.699Z,91.20
2018-02-17T22:22:53.271Z,91.30
2018-02-17T22:25:20.810Z,91.20
2018-02-17T22:27:48.367Z,90.40
2018-02-17T22:30:16.883Z,90.50
2018-02-17T22:32:44.449Z,90.50
2018-02-17T22:35:12.007Z,90.40
2018-02-17T22:37:39.766Z,91.30
2018-02-17T22:40:07.339Z,91.40
2018-02-17T22:42:34.892Z,91.00
2018-02-17T22:45:02.464Z,91.50
2018-02-17T22:47:30.015Z,91.50
2018-02-17T22:49:57.596Z,91.60
2018-02-17T22:52:25.147Z,90.90
2018-02-17T22:54:52.691Z,90.80
2018-02-17T22:57:22.215Z,91.10
2018-02-17T22:59:49.756Z,90.90
2018-02-17T23:02:19.276Z,90.70
2018-02-17T23:04:46.818Z,91.40
2018-02-17T23:07:14.383Z,91.30
2018-02-17T23:09:41.936Z,92.00
2018-02-17T23:12:10.418Z,91.10
2018-02-17T23:14:39.963Z,90.70
2018-02-17T23:17:08.274Z,91.00
2018-02-17T23:19:35.870Z,90.90
2018-02-17T23:22:03.403Z,91.10
2018-02-17T23:24:30.962Z,90.40
2018-02-17T23:26:58.547Z,91.00
2018-02-17T23:29:26.083Z,91.80
2018-02-17T23:31:53.662Z,92.10
2018-02-17T23:34:22.162Z,91.40
2018-02-17T23:36:50.508Z,92.00
2018-02-17T23:39:18.046Z,92.00
2018-02-17T23:41:45.609Z,91.40
2018-02-17T23:44:13.460Z,91.90
2018-02-17T23:46:41.000Z,91.20
2018-02-17T23:49:08.940Z,92.00
2018-02-17T23:51:36.511Z,91.60
2018-02-17T23:54:04.122Z,92.20
2018-02-17T23:56:31.659Z,91.80
2018-02-17T23:58:59.989Z,91.90
